Time;durP1;ratioP1;P1;durP2;ratioP2;P2;SDS_P1;SDS_P2;PMS_P1;PMS_P2;Temp;Humidity;BMP_temperature;BMP_pressure;BME280_temperature;BME280_humidity;BME280_pressure;Samples;Min_cycle;Max_cycle;Signal;HPM_P1;HPM_P2
2024/01/09 05:03:13;;;;;;;2.47;2.20;;;;;;;-0.76;43.74;68471.16;6295455;27;20108;-84
2024/01/09 05:06:16;;;;;;;2.25;2.05;;;;;;;-0.76;42.98;68415.50;5325582;33;34075;-85
2024/01/09 05:09:20;;;;;;;3.42;2.05;;;;;;;-0.81;43.09;68464.81;5327866;33;34143;-85
2024/01/09 05:12:23;;;;;;;2.45;2.17;;;;;;;-0.85;42.08;68457.59;5330138;33;33324;-85
2024/01/09 05:15:26;;;;;;;3.90;2.20;;;;;;;-0.88;42.31;68402.28;5329900;33;34311;-84
2024/01/09 05:18:32;;;;;;;4.37;2.28;;;;;;;-0.88;42.71;68399.66;5301815;33;33424;-84
2024/01/09 05:21:37;;;;;;;3.22;2.37;;;;;;;-0.82;42.01;68409.19;5332949;33;34091;-85
2024/01/09 05:24:47;;;;;;;5.37;2.50;;;;;;;-0.82;41.86;68461.03;5327356;33;34121;-85
2024/01/09 05:27:50;;;;;;;3.70;2.35;;;;;;;-0.79;41.89;68410.03;5320311;33;33919;-84
2024/01/09 05:30:54;;;;;;;2.67;2.12;;;;;;;-0.72;42.98;68420.13;5316061;33;33838;-84
2024/01/09 05:33:57;;;;;;;3.25;2.67;;;;;;;-0.79;41.75;68412.06;5316074;33;34024;-84
2024/01/09 05:37:00;;;;;;;4.20;2.80;;;;;;;-0.75;41.91;68414.63;5316400;33;34794;-84
2024/01/09 05:40:04;;;;;;;3.80;2.87;;;;;;;-0.83;41.68;68408.03;5314243;33;33643;-84
2024/01/09 05:43:07;;;;;;;2.67;2.00;;;;;;;-0.83;41.51;68402.78;5326133;33;33927;-84
2024/01/09 05:46:10;;;;;;;4.12;2.65;;;;;;;-0.66;41.92;68424.41;5312291;33;34582;-88
2024/01/09 05:49:13;;;;;;;3.15;2.65;;;;;;;-0.56;42.44;68438.50;5326537;33;33801;-88
2024/01/09 05:52:16;;;;;;;3.60;3.30;;;;;;;-0.61;41.86;68430.16;5312244;33;33655;-89
2024/01/09 05:55:20;;;;;;;3.60;2.40;;;;;;;-0.61;41.87;68482.63;5298576;33;33908;-86
2024/01/09 05:58:23;;;;;;;6.47;2.60;;;;;;;-0.73;41.62;68416.34;5300842;33;33489;-85
2024/01/09 06:01:26;;;;;;;3.20;2.35;;;;;;;-0.75;41.82;68412.00;5312699;33;33617;-84
2024/01/09 06:04:30;;;;;;;3.12;2.33;;;;;;;-0.83;41.33;68405.41;5325243;33;34735;-84
2024/01/09 06:07:33;;;;;;;2.65;2.28;;;;;;;-0.72;42.31;68417.50;5325505;33;33445;-85
2024/01/09 06:10:36;;;;;;;3.40;2.55;;;;;;;-0.72;40.52;68415.44;5312550;33;34452;-84
2024/01/09 06:13:39;;;;;;;4.93;2.47;;;;;;;-0.67;41.53;68423.25;5301297;33;33217;-84
2024/01/09 06:16:42;;;;;;;3.83;2.20;;;;;;;-0.68;41.38;68422.66;5301278;33;33389;-85
2024/01/09 06:19:45;;;;;;;3.72;2.92;;;;;;;-0.74;41.32;68415.19;5300023;33;33363;-85
2024/01/09 06:22:48;;;;;;;2.75;2.30;;;;;;;-0.72;40.65;68420.69;5307646;33;34682;-85
2024/01/09 06:25:51;;;;;;;3.08;2.55;;;;;;;-0.70;41.74;68420.38;5326827;33;33879;-85
2024/01/09 06:28:54;;;;;;;3.92;2.50;;;;;;;-0.74;41.62;68415.75;5324162;33;33780;-85
2024/01/09 06:31:57;;;;;;;4.18;3.45;;;;;;;-0.73;43.55;68416.91;5300716;33;33875;-85
2024/01/09 06:35:00;;;;;;;3.12;2.72;;;;;;;-0.66;40.58;68423.81;5308689;33;33856;-85
2024/01/09 06:38:03;;;;;;;5.80;2.45;;;;;;;-0.71;40.52;68418.63;5329174;33;34577;-85
2024/01/09 06:41:06;;;;;;;3.30;2.70;;;;;;;-0.69;41.87;68418.31;5325692;33;34279;-84
2024/01/09 06:44:10;;;;;;;4.97;2.90;;;;;;;-0.64;41.47;68481.19;5325583;33;33838;-84
2024/01/09 06:47:13;;;;;;;4.25;2.67;;;;;;;-0.65;42.09;68428.16;5306854;33;33776;-84
2024/01/09 06:50:16;;;;;;;3.47;2.42;;;;;;;-0.72;41.49;68417.50;5326004;33;34444;-85
2024/01/09 06:53:35;;;;;;;8.63;3.92;;;;;;;-0.72;42.26;68417.50;5335993;33;34549;-85
2024/01/09 06:56:43;;;;;;;7.68;3.80;;;;;;;-0.63;41.11;68425.22;5312047;33;34387;-85
2024/01/09 06:59:47;;;;;;;4.10;3.00;;;;;;;-0.62;42.12;68431.59;5324918;33;33845;-84
2024/01/09 07:02:50;;;;;;;3.45;2.33;;;;;;;-0.51;42.47;68496.75;5323496;33;33655;-84
2024/01/09 07:05:54;;;;;;;2.45;2.25;;;;;;;-0.51;41.32;68441.66;5331105;33;33376;-84
2024/01/09 07:08:56;;;;;;;6.68;2.97;;;;;;;-0.56;41.70;68435.88;5300618;33;34015;-85
2024/01/09 07:12:00;;;;;;;5.20;3.10;;;;;;;-0.53;42.71;68436.72;5316694;33;36444;-84
2024/01/09 07:15:03;;;;;;;4.07;2.92;;;;;;;-0.43;41.59;68450.28;5325160;33;33286;-84
2024/01/09 07:18:06;;;;;;;4.70;2.78;;;;;;;-0.39;42.64;68452.25;5311014;33;34838;-84
2024/01/09 07:21:09;;;;;;;6.25;3.35;;;;;;;-0.35;44.23;68462.13;5295443;33;33975;-84
2024/01/09 07:24:12;;;;;;;4.10;2.35;;;;;;;-0.29;44.22;68471.66;5338287;33;34281;-84
2024/01/09 07:27:15;;;;;;;4.72;3.22;;;;;;;-0.27;42.92;68465.50;5335912;33;33794;-84
2024/01/09 07:30:18;;;;;;;7.10;3.25;;;;;;;-0.24;42.33;68471.56;5346127;33;33719;-84
2024/01/09 07:33:21;;;;;;;5.75;2.72;;;;;;;-0.20;40.58;68476.19;5328790;33;34880;-84
2024/01/09 07:36:25;;;;;;;6.55;3.33;;;;;;;-0.14;42.40;68485.72;5311427;33;33769;-84
2024/01/09 07:39:29;;;;;;;5.05;3.17;;;;;;;-0.04;41.84;68494.03;5308770;33;33715;-84
2024/01/09 07:42:32;;;;;;;4.05;2.55;;;;;;;0.03;42.82;68499.47;5305148;33;33451;-84
2024/01/09 07:45:50;;;;;;;5.75;2.87;;;;;;;0.02;41.60;68500.94;5323283;33;35184;-89
2024/01/09 07:48:53;;;;;;;4.85;3.08;;;;;;;0.08;40.29;68505.22;5302580;33;33322;-88
2024/01/09 07:51:56;;;;;;;6.28;2.62;;;;;;;0.19;40.54;68517.88;5323781;33;34049;-85
2024/01/09 07:54:59;;;;;;;12.13;3.67;;;;;;;0.35;40.61;68596.16;5302343;33;33630;-84
2024/01/09 07:58:02;;;;;;;5.80;2.80;;;;;;;0.37;40.20;68540.66;5326963;33;33819;-84
2024/01/09 08:01:05;;;;;;;9.75;3.47;;;;;;;0.41;40.12;68547.31;5328402;33;33888;-83
2024/01/09 08:04:09;;;;;;;3.65;3.00;;;;;;;0.42;41.62;68545.84;5339704;33;33765;-83
2024/01/09 08:07:12;;;;;;;5.22;2.87;;;;;;;0.22;40.40;68521.34;5310431;33;34095;-84
2024/01/09 08:10:16;;;;;;;5.25;3.20;;;;;;;0.20;40.18;68519.03;5335970;33;33802;-83
2024/01/09 08:13:19;;;;;;;4.40;2.87;;;;;;;0.26;40.46;68530.59;5325359;33;33338;-83
2024/01/09 08:16:22;;;;;;;7.40;3.25;;;;;;;0.39;40.27;68545.03;5311923;33;33792;-83
2024/01/09 08:19:24;;;;;;;3.55;2.75;;;;;;;0.45;39.85;68549.88;5324989;33;33912;-83
2024/01/09 08:22:28;;;;;;;8.18;3.50;;;;;;;0.48;39.50;68552.19;5295043;33;33587;-83
2024/01/09 08:25:31;;;;;;;5.65;2.80;;;;;;;0.52;40.69;68556.78;5320392;33;34044;-83
2024/01/09 08:28:34;;;;;;;7.53;3.08;;;;;;;0.54;40.81;68557.03;5328923;33;34986;-82
2024/01/09 08:31:45;;;;;;;6.62;3.03;;;;;;;0.51;39.66;68611.41;5342991;33;35003;-83
2024/01/09 08:34:49;;;;;;;4.30;2.92;;;;;;;0.75;40.96;68580.66;5342483;33;34705;-83
2024/01/09 08:37:52;;;;;;;3.30;2.62;;;;;;;0.78;39.49;68589.34;5325938;33;34369;-83
2024/01/09 08:40:56;;;;;;;7.72;2.90;;;;;;;0.71;38.76;68578.69;5344088;33;33725;-83
2024/01/09 08:43:59;;;;;;;6.93;2.87;;;;;;;0.71;39.97;68583.94;5349744;33;35386;-83
2024/01/09 08:47:02;;;;;;;5.37;3.10;;;;;;;0.82;39.68;68590.75;5327844;33;33882;-83
2024/01/09 08:50:05;;;;;;;4.60;2.95;;;;;;;0.94;39.33;68661.88;5326673;33;34792;-83
2024/01/09 08:53:09;;;;;;;9.77;3.05;;;;;;;0.99;39.41;68610.34;5320260;33;34561;-83
2024/01/09 08:56:12;;;;;;;4.87;3.10;;;;;;;0.87;38.41;68597.09;5335492;33;34012;-84
2024/01/09 08:59:15;;;;;;;6.50;3.10;;;;;;;0.94;41.67;68604.59;5307085;33;33871;-84
2024/01/09 09:02:18;;;;;;;7.18;2.92;;;;;;;0.99;39.18;68612.41;5324310;33;33976;-84
2024/01/09 09:05:21;;;;;;;4.65;2.62;;;;;;;1.21;38.60;68632.50;5328541;33;34630;-82
2024/01/09 09:08:25;;;;;;;5.18;2.85;;;;;;;1.11;38.21;68624.19;5320110;33;33896;-83
2024/01/09 09:11:29;;;;;;;12.02;4.07;;;;;;;1.16;39.39;68631.44;5305027;33;33983;-83
2024/01/09 09:14:32;;;;;;;5.28;3.15;;;;;;;1.18;38.57;68631.09;5301897;33;33575;-82
2024/01/09 09:17:36;;;;;;;9.68;3.37;;;;;;;1.03;38.07;68614.97;5317073;33;33969;-82
2024/01/09 09:20:38;;;;;;;5.30;2.87;;;;;;;1.28;40.53;68642.63;5316056;33;33999;-82
2024/01/09 09:23:41;;;;;;;5.72;3.08;;;;;;;1.48;39.71;68665.09;5284237;33;32637;-84
2024/01/09 09:26:45;;;;;;;4.25;3.10;;;;;;;1.49;38.10;68669.47;5334759;33;35635;-85
2024/01/09 09:29:48;;;;;;;4.50;2.65;;;;;;;1.72;39.46;68692.78;5320584;33;33741;-83
2024/01/09 09:32:51;;;;;;;5.45;3.00;;;;;;;1.78;38.96;68701.75;5325231;33;33938;-83
2024/01/09 09:35:55;;;;;;;6.25;3.00;;;;;;;1.95;37.77;68776.09;5317720;33;33331;-84
2024/01/09 09:38:58;;;;;;;7.10;3.17;;;;;;;1.69;37.36;68691.38;5324009;33;33630;-82
2024/01/09 09:42:01;;;;;;;6.07;2.95;;;;;;;1.83;37.97;68704.31;5330174;33;33775;-82
2024/01/09 09:45:11;;;;;;;6.72;3.30;;;;;;;2.11;37.70;68736.03;5309528;33;33753;-81
2024/01/09 09:48:16;;;;;;;;;;;;;;;2.20;37.39;68804.41;5319745;33;33494;-81
2024/01/09 09:51:22;;;;;;;3.90;2.80;;;;;;;2.04;37.71;68729.09;5315442;33;34068;-86
2024/01/09 09:54:29;;;;;;;3.62;2.40;;;;;;;2.23;37.04;68755.72;5335315;33;33878;-83
2024/01/09 09:57:32;;;;;;;2.92;2.62;;;;;;;2.31;36.49;68759.13;5309762;33;34538;-82
2024/01/09 10:00:35;;;;;;;3.58;2.75;;;;;;;2.21;35.96;68748.13;5295951;33;33847;-82
2024/01/09 10:03:48;;;;;;;3.72;2.62;;;;;;;2.45;36.52;68774.69;5325372;33;34435;-82
2024/01/09 10:06:54;;;;;;;3.70;2.42;;;;;;;2.61;36.76;68792.56;5327349;33;34768;-82
2024/01/09 10:10:01;;;;;;;6.20;2.70;;;;;;;2.51;34.48;68784.25;5324556;33;33418;-81
2024/01/09 10:13:05;;;;;;;3.42;2.08;;;;;;;2.46;34.53;68834.41;5338867;33;33516;-82
2024/01/09 10:16:11;;;;;;;3.95;2.58;;;;;;;2.22;33.87;68749.31;5318255;33;33964;-82
2024/01/09 10:19:14;;;;;;;3.67;2.40;;;;;;;2.00;33.59;68724.50;5330995;33;34991;-82
2024/01/09 10:22:17;;;;;;;3.42;2.50;;;;;;;2.29;36.02;68759.44;5336093;33;33843;-81
2024/01/09 10:25:21;;;;;;;5.57;3.05;;;;;;;2.17;35.06;68742.97;5313391;33;34592;-82
2024/01/09 10:28:26;;;;;;;4.57;2.50;;;;;;;2.50;34.54;68788.38;5310982;33;35064;-82
2024/01/09 10:31:32;;;;;;;2.70;2.20;;;;;;;2.53;34.46;68785.97;5331843;33;33599;-82
2024/01/09 10:34:35;;;;;;;2.60;2.10;;;;;;;2.89;34.40;68824.88;5327876;33;34085;-82
2024/01/09 10:37:38;;;;;;;5.10;2.50;;;;;;;2.98;34.25;68834.13;5303510;33;33957;-82
2024/01/09 10:40:42;;;;;;;5.43;2.50;;;;;;;2.88;34.59;68826.38;5292877;33;33854;-82
2024/01/09 10:43:49;;;;;;;3.90;2.03;;;;;;;2.81;33.71;68815.66;5282237;33;34607;-82
2024/01/09 10:46:52;;;;;;;3.03;2.10;;;;;;;2.47;33.88;68782.25;5309049;33;33538;-82
2024/01/09 10:49:55;;;;;;;4.72;2.62;;;;;;;2.66;33.58;68803.59;5327555;33;33820;-81
2024/01/09 10:52:58;;;;;;;4.45;2.37;;;;;;;2.53;34.05;68786.56;5323969;33;33521;-82
2024/01/09 10:56:03;;;;;;;4.53;2.47;;;;;;;2.60;34.14;68794.63;5324400;33;34556;-82
2024/01/09 10:59:10;;;;;;;4.50;1.70;;;;;;;2.38;33.62;68769.81;5311046;33;33494;-82
2024/01/09 11:02:15;;;;;;;2.92;2.03;;;;;;;2.32;33.15;68759.69;5324225;33;33861;-82
2024/01/09 11:05:19;;;;;;;3.30;2.12;;;;;;;2.39;32.99;68773.59;5328421;33;33557;-82
2024/01/09 11:08:23;;;;;;;4.35;2.62;;;;;;;2.54;33.43;68784.50;5311882;33;33617;-82
2024/01/09 11:11:28;;;;;;;4.03;2.50;;;;;;;2.52;36.04;68787.47;5312192;33;33633;-82
2024/01/09 11:14:32;;;;;;;5.15;2.45;;;;;;;2.63;33.11;68795.47;5325038;33;33890;-82
2024/01/09 11:17:38;;;;;;;2.58;2.25;;;;;;;2.65;33.17;68800.41;5326160;33;33652;-82
2024/01/09 11:20:42;;;;;;;4.18;2.42;;;;;;;2.67;33.32;68802.13;5329603;33;33847;-81
2024/01/09 11:23:52;;;;;;;3.80;2.05;;;;;;;2.92;34.60;68830.41;5343495;33;33380;-82
2024/01/09 11:27:17;;;;;;;4.72;2.40;;;;;;;3.07;35.64;68849.78;5329681;33;34055;-85
2024/01/09 11:30:29;;;;;;;5.53;2.22;;;;;;;3.08;33.99;68850.97;5320526;33;34230;-82
2024/01/09 11:33:41;;;;;;;3.45;1.75;;;;;;;3.17;33.57;68861.34;5332933;33;33789;-82
2024/01/09 11:36:45;;;;;;;3.62;2.45;;;;;;;3.52;34.62;68895.34;5329097;33;33900;-81
2024/01/09 11:39:48;;;;;;;2.80;2.33;;;;;;;3.51;33.39;68894.16;5332745;33;34118;-81
2024/01/09 11:42:52;;;;;;;3.75;2.10;;;;;;;3.86;33.68;68939.31;5301503;33;33413;-81
2024/01/09 11:45:55;;;;;;;4.30;2.37;;;;;;;4.11;32.82;68961.78;5316005;33;33486;-81
2024/01/09 11:48:59;;;;;;;2.85;2.20;;;;;;;4.57;33.16;69013.78;5307745;33;34021;-81
2024/01/09 11:52:04;;;;;;;3.80;2.33;;;;;;;5.18;32.30;69086.41;5327793;33;33866;-81
2024/01/09 11:55:09;;;;;;;4.32;2.10;;;;;;;5.55;32.47;69130.13;5331737;33;34160;-82
2024/01/09 11:58:12;;;;;;;3.83;2.15;;;;;;;5.05;31.89;69076.06;5333737;33;33920;-81
2024/01/09 12:01:15;;;;;;;5.45;2.33;;;;;;;4.45;31.71;69003.72;5340074;33;33919;-81
2024/01/09 12:04:18;;;;;;;3.42;1.95;;;;;;;4.29;32.48;68983.13;5314495;33;33903;-82
2024/01/09 12:07:21;;;;;;;2.75;2.30;;;;;;;3.88;33.29;68936.34;5324863;33;33397;-81
2024/01/09 12:10:24;;;;;;;4.70;2.60;;;;;;;3.63;33.52;68966.16;5311468;33;33562;-81
2024/01/09 12:13:35;;;;;;;2.35;1.77;;;;;;;3.70;34.25;68918.75;5324324;33;34930;-82
2024/01/09 12:20:45;;;;;;;4.90;2.62;;;;;;;3.52;35.24;68895.34;6172638;28;20135;-81
2024/01/09 12:23:48;;;;;;;12.23;3.50;;;;;;;3.51;35.79;68949.63;5328088;33;33427;-82
2024/01/09 12:27:11;;;;;;;4.53;2.20;;;;;;;3.95;36.12;69002.59;5340867;33;34339;-82
2024/01/09 12:30:15;;;;;;;3.00;2.12;;;;;;;4.35;33.42;68991.56;5341040;33;33987;-82
2024/01/09 12:33:18;;;;;;;2.40;1.95;;;;;;;4.94;32.40;69059.22;5351714;33;34161;-82
2024/01/09 12:36:24;;;;;;;4.35;2.12;;;;;;;6.19;30.37;69200.44;5326474;33;34869;-83
2024/01/09 12:39:26;;;;;;;3.10;2.28;;;;;;;7.86;29.26;69389.88;5329012;33;34583;-83
2024/01/09 12:42:30;;;;;;;4.03;2.05;;;;;;;9.21;27.92;69545.72;5342417;33;34674;-87
2024/01/09 12:45:35;;;;;;;2.67;2.12;;;;;;;9.58;25.65;69587.53;5347248;33;34368;-87
2024/01/09 12:48:42;;;;;;;2.72;2.15;;;;;;;11.46;24.52;69803.53;5346297;33;33986;-87
2024/01/09 12:51:45;;;;;;;3.87;2.55;;;;;;;13.01;23.01;69977.22;5341883;33;34088;-83
2024/01/09 12:54:48;;;;;;;4.95;2.50;;;;;;;14.47;21.03;70141.81;5336259;33;33462;-83
2024/01/09 12:57:51;;;;;;;2.78;2.50;;;;;;;15.59;20.67;70272.28;5323704;33;33748;-83
2024/01/09 13:00:54;;;;;;;5.37;2.90;;;;;;;14.82;20.29;70186.28;5328224;33;33905;-83
2024/01/09 13:03:57;;;;;;;4.18;2.25;;;;;;;14.81;20.51;70182.44;5328518;33;33566;-83
2024/01/09 13:07:04;;;;;;;6.82;2.95;;;;;;;13.82;21.01;70126.88;5334636;33;33871;-83
2024/01/09 13:10:06;;;;;;;3.53;2.50;;;;;;;14.25;21.02;70122.13;5328633;33;34535;-83
2024/01/09 13:13:10;;;;;;;4.57;2.15;;;;;;;12.35;22.28;69902.72;5326342;33;33600;-83
2024/01/09 13:16:13;;;;;;;3.70;1.92;;;;;;;11.20;23.80;69771.75;5343809;33;34964;-83
2024/01/09 13:19:16;;;;;;;2.22;1.83;;;;;;;9.83;25.23;69616.00;5326071;33;34254;-83
2024/01/09 13:22:19;;;;;;;2.83;1.83;;;;;;;7.35;27.09;69331.34;5353926;33;33470;-83
2024/01/09 13:25:25;;;;;;;1.60;1.50;;;;;;;5.84;27.96;69163.13;5329671;33;33704;-83
2024/01/09 13:28:31;;;;;;;3.87;1.80;;;;;;;4.70;28.16;69034.69;5364238;33;34914;-83
2024/01/09 13:31:36;;;;;;;2.65;1.70;;;;;;;4.02;30.28;68955.16;5347439;33;34857;-83
2024/01/09 13:34:39;;;;;;;2.28;1.75;;;;;;;3.64;29.53;68909.19;5331152;33;33675;-83
2024/01/09 13:37:43;;;;;;;1.52;1.15;;;;;;;3.28;30.87;68868.19;5349673;33;33756;-83
2024/01/09 13:40:48;;;;;;;4.22;1.80;;;;;;;3.13;30.39;68852.03;5332066;33;34910;-83
2024/01/09 13:43:51;;;;;;;1.90;1.70;;;;;;;2.97;32.88;68833.53;5352648;33;33564;-82
2024/01/09 13:46:55;;;;;;;1.83;1.50;;;;;;;2.81;32.47;68815.06;5341089;33;33899;-82
2024/01/09 13:49:58;;;;;;;5.00;1.30;;;;;;;2.53;31.54;68785.97;5330526;33;34571;-83
2024/01/09 13:53:04;;;;;;;1.45;1.33;;;;;;;2.43;31.61;68772.38;5330405;33;33848;-82
2024/01/09 13:56:07;;;;;;;5.75;1.92;;;;;;;2.39;31.99;68768.34;5329166;33;33544;-82
2024/01/09 13:59:10;;;;;;;3.30;1.92;;;;;;;2.29;31.84;68759.44;5312551;33;33627;-82
2024/01/09 14:02:14;;;;;;;2.90;1.52;;;;;;;2.23;31.83;68752.50;5332157;33;34259;-83
2024/01/09 14:05:17;;;;;;;1.90;1.70;;;;;;;2.09;31.76;68739.56;5352958;33;34787;-83
2024/01/09 14:08:23;;;;;;;3.65;1.90;;;;;;;2.07;31.72;68732.00;5354708;33;34985;-83
2024/01/09 14:11:26;;;;;;;2.33;1.55;;;;;;;1.92;31.58;68720.53;5349042;33;33801;-83
2024/01/09 14:14:30;;;;;;;1.98;1.77;;;;;;;1.84;31.76;68708.09;5360816;33;33355;-83
2024/01/09 14:17:35;;;;;;;3.37;1.62;;;;;;;1.76;31.81;68699.47;5350462;33;33977;-82
2024/01/09 14:20:41;;;;;;;1.60;1.33;;;;;;;1.75;31.69;68698.28;5344931;33;33870;-83
2024/01/09 14:23:44;;;;;;;2.55;1.62;;;;;;;1.65;33.23;68686.78;5344663;33;34493;-83
2024/01/09 14:26:47;;;;;;;3.37;1.85;;;;;;;1.68;32.23;68690.22;5355030;33;34244;-83
2024/01/09 14:29:52;;;;;;;4.65;2.65;;;;;;;1.60;33.26;68684.22;5346339;33;33985;-83
2024/01/09 14:32:55;;;;;;;2.20;2.00;;;;;;;1.54;33.36;68677.28;5340419;33;34526;-83
2024/01/09 14:35:59;;;;;;;3.62;2.00;;;;;;;1.51;33.75;68669.13;5328635;33;33182;-83
2024/01/09 14:39:03;;;;;;;2.33;1.92;;;;;;;1.52;34.16;68675.56;5334578;33;34046;-87
2024/01/09 14:42:06;;;;;;;3.40;2.37;;;;;;;1.43;35.60;68662.53;5309007;33;34351;-88
2024/01/09 14:45:12;;;;;;;3.03;1.85;;;;;;;1.29;35.44;68702.25;5332172;33;33861;-87
2024/01/09 14:48:16;;;;;;;7.05;2.60;;;;;;;1.26;35.00;68640.34;5319725;33;33624;-85
2024/01/09 14:51:18;;;;;;;2.53;1.87;;;;;;;1.12;35.16;68627.97;5330982;33;33698;-83
2024/01/09 14:54:25;;;;;;;9.02;2.37;;;;;;;1.08;36.03;68620.75;5318220;33;33461;-83
2024/01/09 14:57:28;;;;;;;4.20;2.37;;;;;;;0.95;36.32;68605.75;5340864;33;34663;-83
2024/01/09 15:00:31;;;;;;;3.97;1.80;;;;;;;0.81;37.82;68595.44;5333823;33;33266;-84
2024/01/09 15:03:36;;;;;;;3.85;2.22;;;;;;;0.81;37.30;68592.25;5318165;33;33845;-84
2024/01/09 15:06:41;;;;;;;3.15;2.25;;;;;;;0.78;37.26;68592.00;5325149;33;34527;-84
2024/01/09 15:09:47;;;;;;;6.70;2.67;;;;;;;0.84;37.28;68596.28;5329219;33;33360;-84
2024/01/09 15:12:51;;;;;;;3.62;2.22;;;;;;;0.76;37.48;68584.44;5329674;33;33953;-84
2024/01/09 15:15:54;;;;;;;1.87;1.77;;;;;;;0.63;37.90;68575.28;5331353;33;33730;-83
2024/01/09 15:18:57;;;;;;;2.67;2.33;;;;;;;0.36;38.70;68597.31;5340713;33;34177;-84
2024/01/09 15:22:01;;;;;;;3.05;2.12;;;;;;;0.29;38.73;68533.50;5332012;33;33629;-84
2024/01/09 15:25:05;;;;;;;6.75;2.00;;;;;;;0.22;37.84;68521.34;5331894;33;33970;-84
2024/01/09 15:28:08;;;;;;;2.65;2.28;;;;;;;0.33;38.54;68538.69;5340823;33;33464;-84
2024/01/09 15:31:19;;;;;;;2.50;2.30;;;;;;;0.15;38.19;68515.34;5339728;33;153230;-84
2024/01/09 15:34:24;;;;;;;4.50;2.80;;;;;;;-0.05;39.16;68498.69;5312424;33;34843;-84
2024/01/09 15:37:28;;;;;;;3.80;3.33;;;;;;;-0.18;39.86;68477.91;5309427;33;33487;-83
2024/01/09 15:40:32;;;;;;;3.80;2.35;;;;;;;-0.26;40.77;68469.28;5300595;33;34217;-83
2024/01/09 15:43:36;;;;;;;5.12;3.58;;;;;;;-0.33;40.55;68463.84;5326082;33;34520;-83
2024/01/09 15:46:39;;;;;;;5.22;3.17;;;;;;;-0.41;41.33;68454.63;5300740;33;34009;-82
2024/01/09 15:49:42;;;;;;;5.82;3.35;;;;;;;-0.37;41.09;68454.00;5312138;33;33484;-83
2024/01/09 15:52:45;;;;;;;6.35;3.08;;;;;;;-0.33;42.09;68469.66;5312174;33;34989;-83
2024/01/09 15:55:50;;;;;;;4.32;2.75;;;;;;;-0.51;42.25;68441.06;5324982;33;34862;-83
2024/01/09 15:58:53;;;;;;;5.65;2.65;;;;;;;-0.56;42.46;68437.94;5324950;33;34089;-83
2024/01/09 16:01:57;;;;;;;5.65;3.28;;;;;;;-0.63;42.92;68427.28;5331438;33;33310;-83
2024/01/09 16:05:01;;;;;;;7.55;3.42;;;;;;;-0.74;43.38;68421.00;5346430;33;34386;-83
2024/01/09 16:08:10;;;;;;;3.47;2.67;;;;;;;-0.78;43.65;68413.78;5343268;33;33909;-83
2024/01/09 16:11:13;;;;;;;11.10;3.33;;;;;;;-0.85;44.89;68408.34;5336178;33;33437;-82
2024/01/09 16:14:17;;;;;;;7.68;2.75;;;;;;;-0.82;43.75;68409.19;5326405;33;34665;-83
2024/01/09 16:17:20;;;;;;;6.55;3.28;;;;;;;-0.87;43.90;68403.44;5318540;33;34428;-82
2024/01/09 16:20:23;;;;;;;4.72;3.78;;;;;;;-0.89;43.87;68397.94;5308124;33;33902;-83
2024/01/09 16:23:26;;;;;;;6.28;3.00;;;;;;;-0.97;44.78;68389.88;5298334;33;34359;-83
2024/01/09 16:26:28;;;;;;;5.20;3.50;;;;;;;-0.96;43.78;68395.72;5299838;33;34013;-83
2024/01/09 16:29:32;;;;;;;6.40;3.62;;;;;;;-1.07;44.05;68378.38;5326075;33;33859;-83
2024/01/09 16:32:35;;;;;;;7.30;3.67;;;;;;;-1.16;44.13;68371.22;5316539;33;33561;-83
2024/01/09 16:35:39;;;;;;;8.52;4.90;;;;;;;-1.23;45.20;68360.56;5310210;33;34100;-86
2024/01/09 16:38:43;;;;;;;11.65;5.10;;;;;;;-1.30;45.00;68354.56;5327952;33;34517;-87
2024/01/09 16:41:48;;;;;;;9.85;4.10;;;;;;;-1.35;46.90;68346.75;5326853;33;33754;-87
2024/01/09 16:44:50;;;;;;;8.23;3.30;;;;;;;-1.42;46.30;68336.66;5329961;33;34661;-83
2024/01/09 16:47:54;;;;;;;6.68;3.03;;;;;;;-1.47;46.71;68336.16;5314920;33;34361;-83
2024/01/09 16:50:57;;;;;;;5.32;3.10;;;;;;;-1.40;45.89;68338.97;5315253;33;33657;-83
2024/01/09 16:54:00;;;;;;;7.50;3.67;;;;;;;-1.46;45.63;68337.31;5315599;33;34641;-84
